Time,TemperatureF,DewpointF,PressureIn,WindDirection,WindDirectionDegrees,WindSpeedMPH,WindSpeedGustMPH,Humidity,HourlyPrecipIn,Conditions,Clouds,dailyrainin,SolarRadiationWatts/m^2,UVIndex,SoftwareType,DateUTC
2026-05-06 00:04:58,64.8,56.7,30.03,SSW,194,7.2,15,75,0.00,,,0.00,0,0,n/a,2026-05-06T04:04:58Z
2026-05-06 00:09:56,64.7,56.6,30.03,South,189,6.2,11.5,75,0.00,,,0.00,0,0,n/a,2026-05-06T04:09:56Z
2026-05-06 00:14:59,64.6,56.5,30.03,SSW,194,4.1,8.1,75,0.00,,,0.00,0,0,n/a,2026-05-06T04:14:59Z
2026-05-06 00:19:59,64.3,56.5,30.02,SSW,202,4.4,9.6,75.8,0.00,,,0.00,0,0,n/a,2026-05-06T04:19:59Z
2026-05-06 00:24:58,64.3,56.6,30.02,SSW,205,6.4,13.2,76,0.00,,,0.00,0,0,n/a,2026-05-06T04:24:58Z
2026-05-06 00:29:57,64.4,56.7,30.02,SSW,196,7.5,12.7,76,0.00,,,0.00,0,0,n/a,2026-05-06T04:29:57Z
2026-05-06 00:34:56,64.3,56.6,30.02,SSW,193,5.5,12,76,0.00,,,0.00,0,0,n/a,2026-05-06T04:34:56Z
2026-05-06 00:39:56,64.2,56.5,30.02,SSW,203,7.7,15,76,0.00,,,0.00,0,0,n/a,2026-05-06T04:39:56Z
2026-05-06 00:44:59,64.3,56.6,30.02,SSW,198,7,16.1,76,0.00,,,0.00,0,0,n/a,2026-05-06T04:44:59Z
2026-05-06 00:49:58,64.2,56.5,30.02,SSW,209,5.4,9.6,76,0.00,,,0.00,0,0,n/a,2026-05-06T04:49:58Z
2026-05-06 00:54:58,64,56.3,30.02,SSW,196,5.8,10.8,76,0.00,,,0.00,0,0,n/a,2026-05-06T04:54:58Z
2026-05-06 00:59:56,63.8,56.2,30.02,SSW,200,5,12,76.1,0.00,,,0.00,0,0,n/a,2026-05-06T04:59:56Z
2026-05-06 01:04:56,63.8,56.4,30.02,SSW,202,5.9,11.5,77,0.00,,,0.00,0,0,n/a,2026-05-06T05:04:56Z
2026-05-06 01:09:56,63.6,56.3,30.02,South,180,3.7,12,77,0.00,,,0.00,0,0,n/a,2026-05-06T05:09:56Z
2026-05-06 01:14:56,63.4,56.1,30.02,South,189,5.7,11.5,77,0.00,,,0.00,0,0,n/a,2026-05-06T05:14:56Z
2026-05-06 01:19:59,63.3,56,30.01,South,185,4.1,8.4,77.2,0.00,,,0.00,0,0,n/a,2026-05-06T05:19:59Z
2026-05-06 01:24:58,63.2,56.1,30.01,South,179,5.2,8.4,77.8,0.00,,,0.00,0,0,n/a,2026-05-06T05:24:58Z
2026-05-06 01:29:57,63,56,30.01,South,191,3.1,7.2,77.8,0.00,,,0.00,0,0,n/a,2026-05-06T05:29:57Z
2026-05-06 01:34:57,62.8,55.8,30.01,South,189,3.4,8.4,78,0.00,,,0.00,0,0,n/a,2026-05-06T05:34:57Z
2026-05-06 01:39:57,62.6,55.8,30.01,SSW,193,3.3,7.2,78.5,0.00,,,0.00,0,0,n/a,2026-05-06T05:39:57Z
2026-05-06 01:44:56,62.4,55.7,30.01,SSW,200,2.4,4.8,78.7,0.00,,,0.00,0,0,n/a,2026-05-06T05:44:56Z
2026-05-06 01:49:59,62.2,55.6,30.01,SSW,192,2.5,4.8,79,0.00,,,0.00,0,0,n/a,2026-05-06T05:49:59Z
2026-05-06 01:54:58,61.9,55.7,30.01,South,187,2.8,4.8,80,0.00,,,0.00,0,0,n/a,2026-05-06T05:54:58Z
2026-05-06 01:59:57,61.7,55.5,30.01,South,184,2.3,4.8,80,0.00,,,0.00,0,0,n/a,2026-05-06T05:59:57Z
2026-05-06 02:04:57,61.5,55.6,30.00,South,178,2.9,4.8,80.8,0.00,,,0.00,0,0,n/a,2026-05-06T06:04:57Z
2026-05-06 02:09:57,61.4,55.5,30.00,South,177,1.8,3.6,81,0.00,,,0.00,0,0,n/a,2026-05-06T06:09:57Z
2026-05-06 02:14:57,61.2,55.3,30.00,South,177,1.2,2.4,81,0.00,,,0.00,0,0,n/a,2026-05-06T06:14:57Z
2026-05-06 02:19:56,61,55.3,30.00,South,186,0.9,2.4,81.6,0.00,,,0.00,0,0,n/a,2026-05-06T06:19:56Z
2026-05-06 02:24:56,60.7,55.2,30.00,South,189,1,2.4,82,0.00,,,0.00,0,0,n/a,2026-05-06T06:24:56Z
2026-05-06 02:29:59,60.5,55.1,30.00,SSE,168,0.5,2.4,82.3,0.00,,,0.00,0,0,n/a,2026-05-06T06:29:59Z
2026-05-06 02:34:57,60.2,55,30.00,South,170,1.3,2.4,83,0.00,,,0.00,0,0,n/a,2026-05-06T06:34:57Z
2026-05-06 02:39:57,59.8,54.7,30.00,SSE,152,1.2,2.4,83.2,0.00,,,0.00,0,0,n/a,2026-05-06T06:39:57Z
2026-05-06 02:44:56,59.5,54.7,30.00,SSE,149,1.8,3.6,83.9,0.00,,,0.00,0,0,n/a,2026-05-06T06:44:56Z
2026-05-06 02:49:59,59.3,54.7,29.99,SSE,156,0.6,2.4,84.8,0.00,,,0.00,0,0,n/a,2026-05-06T06:49:59Z
2026-05-06 02:54:58,59,54.5,29.99,South,173,1.1,2.4,84.8,0.00,,,0.00,0,0,n/a,2026-05-06T06:54:58Z
2026-05-06 02:59:57,58.9,54.6,29.99,South,173,1,2.4,85.7,0.00,,,0.00,0,0,n/a,2026-05-06T06:59:57Z
2026-05-06 03:04:59,58.7,54.5,29.99,SSE,168,1.7,3.6,86,0.00,,,0.00,0,0,n/a,2026-05-06T07:04:59Z
2026-05-06 03:09:59,58.6,54.4,29.99,SSE,162,0.6,2.4,86,0.00,,,0.00,0,0,n/a,2026-05-06T07:09:59Z
2026-05-06 03:14:59,58.5,54.3,29.99,SSE,161,0,1.2,86,0.00,,,0.00,0,0,n/a,2026-05-06T07:14:59Z
2026-05-06 03:19:58,58.3,54.1,29.99,SSE,161,0.1,1.2,86,0.00,,,0.00,0,0,n/a,2026-05-06T07:19:58Z
2026-05-06 03:24:57,58.1,53.9,29.99,SSE,161,0,1.2,86,0.00,,,0.00,0,0,n/a,2026-05-06T07:24:57Z
2026-05-06 03:29:56,57.8,53.9,29.99,SSE,152,1,2.4,86.7,0.00,,,0.00,0,0,n/a,2026-05-06T07:29:56Z
2026-05-06 03:34:56,57.5,53.7,29.99,SE,146,0.4,2.3,87,0.00,,,0.00,0,0,n/a,2026-05-06T07:34:56Z
2026-05-06 03:39:56,57.3,53.5,29.99,SE,146,0,1.2,87.3,0.00,,,0.00,0,0,n/a,2026-05-06T07:39:56Z
2026-05-06 03:44:59,57.1,53.6,29.99,SE,146,0.5,1.2,88,0.00,,,0.00,0,0,n/a,2026-05-06T07:44:59Z
2026-05-06 03:49:58,56.9,53.5,29.99,SE,146,0.5,1.2,88.3,0.00,,,0.00,0,0,n/a,2026-05-06T07:49:58Z
2026-05-06 03:54:57,56.7,53.5,29.99,SSE,150,1,2.4,89,0.00,,,0.00,0,0,n/a,2026-05-06T07:54:57Z
2026-05-06 03:59:56,56.7,53.5,29.99,SSE,165,1,3.6,89.2,0.00,,,0.00,0,0,n/a,2026-05-06T07:59:56Z
2026-05-06 04:04:57,56.8,53.9,29.99,South,190,0.9,3.6,90,0.00,,,0.00,0,0,n/a,2026-05-06T08:04:57Z
2026-05-06 04:09:58,57,54.2,29.99,SSE,168,1.5,3.6,90.5,0.00,,,0.00,0,0,n/a,2026-05-06T08:09:58Z
2026-05-06 04:14:57,57.1,54.5,29.99,South,182,1.8,3.6,90.8,0.00,,,0.00,0,0,n/a,2026-05-06T08:14:57Z
2026-05-06 04:19:56,57.3,54.7,29.99,SSW,192,0.7,2.4,91,0.00,,,0.00,0,0,n/a,2026-05-06T08:19:56Z
2026-05-06 04:24:58,57.3,54.6,29.99,SSW,193,0.2,1.2,90.7,0.00,,,0.00,0,0,n/a,2026-05-06T08:24:58Z
2026-05-06 04:29:57,57.3,54.7,29.99,South,188,1.3,3.6,91,0.00,,,0.00,0,0,n/a,2026-05-06T08:29:57Z
2026-05-06 04:34:56,57.4,54.8,29.99,South,187,1.1,2.4,91,0.00,,,0.00,0,0,n/a,2026-05-06T08:34:56Z
2026-05-06 04:39:56,57.5,54.9,29.99,South,186,1,2.4,91,0.00,,,0.00,0,0,n/a,2026-05-06T08:39:56Z
2026-05-06 04:44:59,57.5,54.8,29.99,SSW,208,1,2.4,90.5,0.00,,,0.00,0,0,n/a,2026-05-06T08:44:59Z
2026-05-06 04:49:58,57.7,55.1,29.99,SSW,213,1.6,2.4,91,0.00,,,0.00,0,0,n/a,2026-05-06T08:49:58Z
2026-05-06 04:54:56,57.9,55.3,29.99,SSW,204,2,4.8,90.8,0.00,,,0.00,0,0,n/a,2026-05-06T08:54:56Z
2026-05-06 04:59:59,58.1,55.3,29.99,SSW,192,1.9,3.6,90.4,0.00,,,0.00,0,0,n/a,2026-05-06T08:59:59Z
2026-05-06 05:04:59,58.3,55.4,29.99,SSW,194,2.3,4.8,90,0.00,,,0.00,0,0,n/a,2026-05-06T09:04:59Z
2026-05-06 05:09:59,58.5,55.6,29.99,South,190,2.4,4.8,90,0.00,,,0.00,0,0,n/a,2026-05-06T09:09:59Z
2026-05-06 05:14:59,58.7,55.6,29.99,SW,219,2.5,4.8,89.6,0.00,,,0.00,0,0,n/a,2026-05-06T09:14:59Z
2026-05-06 05:19:57,58.8,55.6,29.99,SSW,204,2.6,4.8,89,0.00,,,0.00,0,0,n/a,2026-05-06T09:19:57Z
2026-05-06 05:24:56,58.9,55.7,29.99,SSW,202,1.6,3.6,89,0.00,,,0.00,0,0,n/a,2026-05-06T09:24:56Z
2026-05-06 05:29:59,58.9,55.7,29.99,SSW,210,2.2,3.6,89,0.00,,,0.00,0,0,n/a,2026-05-06T09:29:59Z
2026-05-06 05:34:58,58.9,55.7,29.99,SW,216,1.1,2.4,89,0.00,,,0.00,0,0,n/a,2026-05-06T09:34:58Z
2026-05-06 05:39:57,58.9,55.7,29.99,SSW,211,0.7,1.2,89,0.00,,,0.00,0,0,n/a,2026-05-06T09:39:57Z
2026-05-06 05:44:59,58.7,55.4,29.99,SSW,207,0.4,2.4,88.7,0.00,,,0.00,0,0,n/a,2026-05-06T09:44:59Z
2026-05-06 05:49:58,58.7,55.5,29.99,WSW,248,0.4,2.4,89,0.00,,,0.00,0,0,n/a,2026-05-06T09:49:58Z
2026-05-06 05:54:57,58.6,55.4,29.99,WSW,244,0.5,1.2,89,0.00,,,0.00,0,0,n/a,2026-05-06T09:54:57Z
2026-05-06 05:59:56,58.4,55.2,29.99,SSW,209,1.1,3.6,89,0.00,,,0.00,0,0,n/a,2026-05-06T09:59:56Z
2026-05-06 06:04:56,58.2,55,29.99,SSW,204,2.1,3.6,89,0.00,,,0.00,0,0,n/a,2026-05-06T10:04:56Z
2026-05-06 06:09:57,58,55,29.99,SSW,197,1.8,4.8,89.6,0.00,,,0.00,0,0,n/a,2026-05-06T10:09:57Z
2026-05-06 06:14:57,57.9,55,29.99,South,186,2.1,4.8,90,0.00,,,0.00,0,0,n/a,2026-05-06T10:14:57Z
2026-05-06 06:19:56,58,55.3,29.98,SSW,199,2.3,4.6,90.9,0.00,,,0.00,0,0,n/a,2026-05-06T10:19:56Z
2026-05-06 06:24:59,58.1,55.5,29.98,SSW,207,1,2.4,91,0.00,,,0.00,5,0,n/a,2026-05-06T10:24:59Z
2026-05-06 06:29:58,58.1,55.5,29.99,South,177,1.4,3.6,91,0.00,,,0.00,7,0,n/a,2026-05-06T10:29:58Z
2026-05-06 06:34:56,58.1,55.5,29.99,South,171,1.5,4.8,91,0.00,,,0.00,11,0,n/a,2026-05-06T10:34:56Z
2026-05-06 06:39:56,58.1,55.5,29.99,SSE,155,2.5,4.8,91,0.00,,,0.00,14,0,n/a,2026-05-06T10:39:56Z
2026-05-06 06:44:57,58.2,55.6,29.99,South,169,2.7,4.8,91,0.00,,,0.00,23,0,n/a,2026-05-06T10:44:57Z
2026-05-06 06:49:59,58.4,55.8,29.98,SSE,162,1.4,3.6,91,0.00,,,0.00,35,0,n/a,2026-05-06T10:49:59Z
2026-05-06 06:54:56,58.6,56,29.98,SSE,160,2.7,4.8,91,0.00,,,0.00,37,0,n/a,2026-05-06T10:54:56Z
2026-05-06 06:59:57,58.9,56.2,29.98,SSE,155,2.7,4.8,90.7,0.00,,,0.00,39,0,n/a,2026-05-06T10:59:57Z
2026-05-06 07:04:57,59.1,56.2,29.98,SSE,159,2,3.6,90,0.00,,,0.00,35,0,n/a,2026-05-06T11:04:57Z
2026-05-06 07:09:57,59.3,56.4,29.98,South,182,1.8,3.6,90,0.00,,,0.00,21,0,n/a,2026-05-06T11:09:57Z
2026-05-06 07:14:59,59.4,56.5,29.98,SSE,158,2.1,3.6,90,0.00,,,0.00,25,0,n/a,2026-05-06T11:14:59Z
2026-05-06 07:19:56,59.5,56.6,29.98,SSE,159,2,3.6,90,0.00,,,0.00,32,0,n/a,2026-05-06T11:19:56Z
2026-05-06 07:24:56,59.7,56.8,29.98,SSE,158,2.1,3.6,90,0.00,,,0.00,39,0,n/a,2026-05-06T11:24:56Z
2026-05-06 07:29:57,59.9,57,29.99,SSE,155,2,4.8,90,0.00,,,0.00,60,0,n/a,2026-05-06T11:29:57Z
2026-05-06 07:34:58,60.1,56.8,29.99,SSE,154,1.7,3.6,89.2,0.00,,,0.00,60,0,n/a,2026-05-06T11:34:58Z
2026-05-06 07:39:56,60.3,57,29.99,SSE,161,2.1,3.6,89,0.00,,,0.00,98,0,n/a,2026-05-06T11:39:56Z
2026-05-06 07:44:57,60.5,57.2,29.99,SSE,157,2.7,4.8,89,0.00,,,0.00,118,0,n/a,2026-05-06T11:44:57Z
2026-05-06 07:49:59,61,57.7,29.99,SSE,168,2.3,3.6,89,0.00,,,0.00,190,0.5,n/a,2026-05-06T11:49:59Z
2026-05-06 07:54:56,61.6,58.1,29.99,SSE,166,3.4,6,88.2,0.00,,,0.00,290,0.6,n/a,2026-05-06T11:54:56Z
2026-05-06 07:59:58,62.4,58.5,29.99,South,176,3.9,7.2,87.2,0.00,,,0.00,290,0.6,n/a,2026-05-06T11:59:58Z
2026-05-06 08:04:58,62.8,58.5,29.98,South,184,4.8,7.2,85.8,0.00,,,0.00,271,0.6,n/a,2026-05-06T12:04:58Z
2026-05-06 08:09:58,63.2,58.6,29.98,SSW,194,4.9,10.8,85.2,0.00,,,0.00,188,0.6,n/a,2026-05-06T12:09:58Z
2026-05-06 08:14:57,63.5,58.8,29.98,SSW,203,4.7,9.6,84.7,0.00,,,0.00,135,0.6,n/a,2026-05-06T12:14:57Z
2026-05-06 08:19:58,63.8,58.9,29.98,SSW,197,4.5,8.4,84,0.00,,,0.00,139,0.7,n/a,2026-05-06T12:19:58Z
2026-05-06 08:24:58,64.3,59,29.98,SSW,208,6,13.2,83,0.00,,,0.00,141,0.7,n/a,2026-05-06T12:24:58Z
2026-05-06 08:29:59,64.8,59,29.99,SSW,208,5.8,13.2,81.4,0.00,,,0.00,146,0.8,n/a,2026-05-06T12:29:59Z
2026-05-06 08:34:57,65.3,59.1,29.99,SW,224,5.4,12,80.4,0.00,,,0.00,172,0.9,n/a,2026-05-06T12:34:57Z
2026-05-06 08:39:57,65.8,59.1,29.99,SSW,206,7.4,15,78.9,0.00,,,0.00,176,0.9,n/a,2026-05-06T12:39:57Z
2026-05-06 08:44:58,66.3,59.1,29.99,SSW,200,8.8,18.4,77.9,0.00,,,0.00,176,1,n/a,2026-05-06T12:44:58Z
2026-05-06 08:49:56,66.5,59.1,29.99,SW,214,8,18.4,77,0.00,,,0.00,202,1.2,n/a,2026-05-06T12:49:56Z
2026-05-06 08:54:58,66.7,59.2,29.99,SSW,213,6.9,18.4,76.7,0.00,,,0.00,276,1.3,n/a,2026-05-06T12:54:58Z
2026-05-06 08:59:56,67.1,59.4,29.99,SSW,210,4.5,13.2,76.3,0.00,,,0.00,371,1.7,n/a,2026-05-06T12:59:56Z
2026-05-06 09:04:56,67.7,59.7,29.99,SSW,211,6.7,15,75.4,0.00,,,0.00,381,1.6,n/a,2026-05-06T13:04:56Z
2026-05-06 09:09:56,68.1,59.6,29.99,SW,218,5.7,12,74.3,0.00,,,0.00,246,1.4,n/a,2026-05-06T13:09:56Z
2026-05-06 09:14:59,68.4,59.6,30.00,SSW,208,4.9,10.8,73.6,0.00,,,0.00,255,1.4,n/a,2026-05-06T13:14:59Z
2026-05-06 09:19:57,68.6,59.8,30.00,SW,225,5.7,12,73.4,0.00,,,0.00,218,1.4,n/a,2026-05-06T13:19:57Z
2026-05-06 09:24:58,68.7,59.2,30.00,SW,221,6.4,16.1,71.9,0.00,,,0.00,209,1.3,n/a,2026-05-06T13:24:58Z
2026-05-06 09:29:56,68.7,59,30.01,SW,225,6.2,15,71.4,0.00,,,0.00,188,1.2,n/a,2026-05-06T13:29:56Z
2026-05-06 09:34:58,68.6,59.1,30.01,SW,234,5.8,15,71.7,0.00,,,0.00,165,1.1,n/a,2026-05-06T13:34:58Z
2026-05-06 09:39:57,68.7,59.1,30.01,SW,220,5.7,15,71.6,0.00,,,0.00,162,1.3,n/a,2026-05-06T13:39:57Z
2026-05-06 09:44:56,68.7,58.9,30.01,SW,223,6.5,16.1,71,0.00,,,0.00,185,1.4,n/a,2026-05-06T13:44:56Z
2026-05-06 09:49:58,68.7,59,30.01,SSW,213,6.5,16.1,71.2,0.00,,,0.00,295,2.1,n/a,2026-05-06T13:49:58Z
2026-05-06 09:54:59,69,59.4,30.01,SW,219,5.9,12,71.4,0.00,,,0.00,350,2.4,n/a,2026-05-06T13:54:59Z
2026-05-06 09:59:57,69.5,59.8,30.01,SSW,209,4.6,9.6,71.2,0.00,,,0.00,410,2.7,n/a,2026-05-06T13:59:57Z
2026-05-06 10:04:57,70.1,60,30.00,SSW,212,7.3,18,70.2,0.00,,,0.00,487,3,n/a,2026-05-06T14:04:57Z
2026-05-06 10:09:57,70.6,59.7,30.00,SW,229,6.7,18.4,68.5,0.00,,,0.00,459,3,n/a,2026-05-06T14:09:57Z
2026-05-06 10:14:59,70.7,59.6,30.00,SW,218,7,15,67.9,0.00,,,0.00,276,2.1,n/a,2026-05-06T14:14:59Z
2026-05-06 10:19:57,70.6,58.9,30.00,SW,218,9.7,20.7,66.6,0.00,,,0.00,236,1.9,n/a,2026-05-06T14:19:57Z
2026-05-06 10:24:59,70.4,58.6,30.00,SW,214,8.9,24.2,66.3,0.00,,,0.00,281,2.2,n/a,2026-05-06T14:24:59Z
2026-05-06 10:29:57,70.5,58.9,30.00,SW,218,7.7,14.4,66.7,0.00,,,0.00,272,2.2,n/a,2026-05-06T14:29:57Z
2026-05-06 10:34:58,70.6,58.9,30.00,SW,216,6.4,15,66.3,0.00,,,0.00,341,2.7,n/a,2026-05-06T14:34:58Z
2026-05-06 10:39:57,70.9,59,30.00,SW,226,7.7,16.1,66,0.00,,,0.00,410,3.1,n/a,2026-05-06T14:39:57Z
2026-05-06 10:44:59,71.4,59.8,30.00,SSW,205,6.4,13.2,66.7,0.00,,,0.00,471,3.7,n/a,2026-05-06T14:44:59Z
2026-05-06 10:49:57,72,59.9,30.00,SSW,200,7.5,15,65.7,0.00,,,0.00,482,3.8,n/a,2026-05-06T14:49:57Z
2026-05-06 10:54:59,72.4,59.8,30.00,SSW,210,6.9,15,64.7,0.00,,,0.00,508,3.9,n/a,2026-05-06T14:54:59Z
2026-05-06 10:59:57,72.8,59.9,30.00,SSW,206,6.5,12,64.2,0.00,,,0.00,508,3.9,n/a,2026-05-06T14:59:57Z
2026-05-06 11:04:56,73.1,60.5,29.99,SSW,196,6.6,15.6,64.7,0.00,,,0.00,457,3.8,n/a,2026-05-06T15:04:56Z
2026-05-06 11:09:56,73.1,59.6,29.99,SSW,206,8.2,16.1,62.6,0.00,,,0.00,343,3,n/a,2026-05-06T15:09:56Z
2026-05-06 11:14:58,73,59.8,29.99,SSW,206,8.5,19.6,63.2,0.00,,,0.00,302,2.7,n/a,2026-05-06T15:14:58Z
2026-05-06 11:19:56,72.9,59.5,29.99,SSW,204,9.1,18.4,62.8,0.00,,,0.00,239,2.2,n/a,2026-05-06T15:19:56Z
2026-05-06 11:24:58,72.8,59.5,29.99,SSW,196,8.8,17.3,63.1,0.00,,,0.00,230,2.2,n/a,2026-05-06T15:24:58Z
2026-05-06 11:29:56,72.7,59.7,29.99,SSW,206,6.5,16.1,63.7,0.00,,,0.00,279,2.7,n/a,2026-05-06T15:29:56Z
2026-05-06 11:34:58,72.8,59.6,29.98,SSW,204,8,18.4,63.3,0.00,,,0.00,302,2.9,n/a,2026-05-06T15:34:58Z
2026-05-06 11:39:57,72.9,59.6,29.98,SSW,208,9.7,18,63,0.00,,,0.00,315,3,n/a,2026-05-06T15:39:57Z
2026-05-06 11:44:56,73.1,59.4,29.98,SSW,200,9.6,18.4,62.3,0.00,,,0.00,320,3.1,n/a,2026-05-06T15:44:56Z
2026-05-06 11:49:58,73.3,59.7,29.98,SSW,205,7.4,18.4,62.5,0.00,,,0.00,371,3.6,n/a,2026-05-06T15:49:58Z
2026-05-06 11:54:56,73.6,59.9,29.98,SSW,207,8.9,18.4,62.2,0.00,,,0.00,473,4.4,n/a,2026-05-06T15:54:56Z
2026-05-06 11:59:58,74.2,60.3,29.98,SSW,198,8.8,18.4,62.1,0.00,,,0.00,504,4.7,n/a,2026-05-06T15:59:58Z
2026-05-06 12:04:57,74.9,60.7,29.98,SSW,209,4.9,12.7,61.3,0.00,,,0.00,483,4.5,n/a,2026-05-06T16:04:57Z
2026-05-06 12:09:57,75.6,61,29.98,SW,218,6,15.6,60.7,0.00,,,0.00,441,4.2,n/a,2026-05-06T16:09:57Z
2026-05-06 12:14:56,75.4,60.5,29.98,SSW,205,9.2,25.3,59.9,0.00,,,0.00,432,4,n/a,2026-05-06T16:14:56Z
2026-05-06 12:19:58,75.1,60.3,29.98,SSW,211,10.2,21.9,59.9,0.00,,,0.00,371,3.6,n/a,2026-05-06T16:19:58Z
2026-05-06 12:24:56,75,60.3,29.98,SW,221,9.5,18.4,60.3,0.00,,,0.00,320,3.2,n/a,2026-05-06T16:24:56Z
2026-05-06 12:29:59,75.3,60.9,29.98,SSW,211,7.1,16.1,61.1,0.00,,,0.00,394,3.9,n/a,2026-05-06T16:29:59Z
2026-05-06 12:34:58,75.7,61.3,29.98,SSW,211,6.7,12,61.2,0.00,,,0.00,503,4.9,n/a,2026-05-06T16:34:58Z
2026-05-06 12:39:57,76.2,61,29.98,SW,232,7.3,18.4,59.4,0.00,,,0.00,445,4.3,n/a,2026-05-06T16:39:57Z
2026-05-06 12:44:56,76.3,61.1,29.98,SW,226,5.3,13.2,59.5,0.00,,,0.00,415,3.9,n/a,2026-05-06T16:44:56Z
2026-05-06 12:49:58,76.2,61,29.98,SW,214,9.2,16.1,59.3,0.00,,,0.00,297,3,n/a,2026-05-06T16:49:58Z
2026-05-06 12:54:56,76,61.1,29.98,SW,218,6.8,15,60,0.00,,,0.00,301,3,n/a,2026-05-06T16:54:56Z
2026-05-06 12:59:58,76.1,61.1,29.98,SW,214,7.6,13.2,59.8,0.00,,,0.00,403,4.3,n/a,2026-05-06T16:59:58Z
2026-05-06 13:04:57,76.5,61.4,29.97,SW,224,7.8,17.3,59.5,0.00,,,0.00,512,4.8,n/a,2026-05-06T17:04:57Z
2026-05-06 13:09:58,77.4,61.8,29.97,WSW,242,7.2,19.6,58.5,0.00,,,0.00,664,5.6,n/a,2026-05-06T17:09:58Z
2026-05-06 13:14:57,77.6,61.3,29.97,SW,215,8.7,16.1,57.3,0.00,,,0.00,629,5.9,n/a,2026-05-06T17:14:57Z
2026-05-06 13:19:59,78.4,62.3,29.97,SW,232,3.8,10.4,57.8,0.00,,,0.00,691,6.4,n/a,2026-05-06T17:19:59Z
2026-05-06 13:24:56,79.1,62,29.97,SSW,206,7.8,16.1,56,0.00,,,0.00,687,6.4,n/a,2026-05-06T17:24:56Z
2026-05-06 13:29:56,79,62.3,29.97,WSW,240,5.8,13.2,56.5,0.00,,,0.00,668,6.3,n/a,2026-05-06T17:29:56Z
2026-05-06 13:34:59,78.8,61.8,29.97,WSW,249,8.1,16.1,55.9,0.00,,,0.00,752,6.6,n/a,2026-05-06T17:34:59Z
2026-05-06 13:39:56,79.1,62.2,29.97,SW,228,6.5,18.4,56.3,0.00,,,0.00,752,6.6,n/a,2026-05-06T17:39:56Z
2026-05-06 13:44:59,79.2,62.3,29.97,SW,221,7.6,18.4,56.4,0.00,,,0.00,687,6.1,n/a,2026-05-06T17:44:59Z
2026-05-06 13:49:55,79.1,62.3,29.96,SW,224,7,13.2,56.5,0.00,,,0.00,633,5.6,n/a,2026-05-06T17:49:55Z
2026-05-06 13:54:59,79.2,62,29.96,SW,225,8.3,17.3,55.9,0.00,,,0.00,598,5.6,n/a,2026-05-06T17:54:59Z
2026-05-06 13:59:59,79.2,61.8,29.96,SW,221,9.6,19.6,55.3,0.00,,,0.00,628,5.8,n/a,2026-05-06T17:59:59Z
2026-05-06 14:04:57,79.5,62.4,29.96,SSW,205,6.9,16.1,56.2,0.00,,,0.00,635,5.8,n/a,2026-05-06T18:04:57Z
2026-05-06 14:09:59,79.4,61.9,29.96,SW,220,11.6,25.3,55.2,0.00,,,0.00,608,5.6,n/a,2026-05-06T18:09:59Z
2026-05-06 14:14:47,79.3,62.2,29.96,SSW,197,10.7,25.3,56,0.00,,,0.00,617,5.6,n/a,2026-05-06T18:14:47Z
2026-05-06 14:19:59,79.7,62.6,29.95,SSW,213,9.4,23,55.9,0.00,,,0.00,571,5.2,n/a,2026-05-06T18:19:59Z
2026-05-06 14:24:58,79.8,62.3,29.95,SSW,213,10.6,24,55.3,0.00,,,0.00,575,5.1,n/a,2026-05-06T18:24:58Z
2026-05-06 14:29:58,79.7,62.1,29.95,SW,216,12.6,24.2,55,0.00,,,0.00,541,4.8,n/a,2026-05-06T18:29:58Z
2026-05-06 14:34:57,79.7,62.3,29.94,SSW,213,12,24.2,55.4,0.00,,,0.00,563,5,n/a,2026-05-06T18:34:57Z
2026-05-06 14:39:58,79.8,62.4,29.94,SW,215,11.6,23,55.5,0.00,,,0.00,538,4.7,n/a,2026-05-06T18:39:58Z
2026-05-06 14:44:57,79.9,62,29.94,SW,216,10.5,21.9,54.4,0.00,,,0.00,533,4.6,n/a,2026-05-06T18:44:57Z
2026-05-06 14:49:57,80.1,62.2,29.94,SW,236,7.1,18.4,54.4,0.00,,,0.00,418,3.8,n/a,2026-05-06T18:49:57Z
2026-05-06 14:54:57,80.3,62.6,29.94,WSW,258,6.4,15,54.8,0.00,,,0.00,378,3.9,n/a,2026-05-06T18:54:57Z
2026-05-06 14:59:57,80.1,62.3,29.94,SW,223,7.7,19.6,54.7,0.00,,,0.00,308,3,n/a,2026-05-06T18:59:57Z
2026-05-06 15:04:58,79.7,62,29.94,SW,234,7.1,16.1,54.8,0.00,,,0.00,213,2.1,n/a,2026-05-06T19:04:58Z
2026-05-06 15:09:56,79.4,61.9,29.94,SW,231,6.9,16.1,55.2,0.00,,,0.00,285,2.5,n/a,2026-05-06T19:09:56Z
2026-05-06 15:14:56,79.4,62.1,29.94,WSW,252,5.7,12,55.6,0.00,,,0.00,315,3,n/a,2026-05-06T19:14:56Z
2026-05-06 15:19:57,79.6,62.3,29.94,WSW,242,4.9,15.6,55.5,0.00,,,0.00,227,2.1,n/a,2026-05-06T19:19:57Z
2026-05-06 15:24:56,79.4,61.9,29.94,West,260,6.2,16.1,55.3,0.00,,,0.00,125,1.3,n/a,2026-05-06T19:24:56Z
2026-05-06 15:29:56,78.9,61.7,29.94,WSW,258,6.7,16.1,55.6,0.00,,,0.00,127,1.2,n/a,2026-05-06T19:29:56Z
2026-05-06 15:34:59,78.5,61.6,29.94,NNW,328,5.2,16.1,56.1,0.00,,,0.00,165,1.4,n/a,2026-05-06T19:34:59Z
2026-05-06 15:39:57,78.3,61.8,29.94,ESE,110,6.7,13.2,57,0.00,,,0.00,163,1.4,n/a,2026-05-06T19:39:57Z
2026-05-06 15:44:56,78,61.8,29.94,SW,224,7.3,16.1,57.6,0.00,,,0.00,118,1,n/a,2026-05-06T19:44:56Z
2026-05-06 15:49:59,77.5,62.5,29.92,SW,235,5.2,15,60,0.00,,,0.00,95,0.8,n/a,2026-05-06T19:49:59Z
2026-05-06 15:54:57,76.7,63.2,29.92,WSW,237,4.5,10.8,63,0.00,,,0.00,120,1,n/a,2026-05-06T19:54:57Z
2026-05-06 15:59:59,75.7,63.3,29.92,SW,219,5.2,10.8,65.5,0.00,,,0.00,146,1.2,n/a,2026-05-06T19:59:59Z
2026-05-06 16:04:58,74.9,63.4,29.91,SSW,206,5.1,10.8,67.5,0.00,,,0.00,178,1.4,n/a,2026-05-06T20:04:58Z
2026-05-06 16:09:59,74.4,63.9,29.91,SSW,200,5.7,13.2,69.8,0.00,,,0.00,216,1.8,n/a,2026-05-06T20:09:59Z
2026-05-06 16:14:58,74.2,64.1,29.91,SSW,197,5.1,10.4,70.8,0.00,,,0.00,271,2,n/a,2026-05-06T20:14:58Z
2026-05-06 16:19:56,74.4,64.3,29.88,WSW,241,2.8,7.2,70.6,0.00,,,0.00,272,2.1,n/a,2026-05-06T20:19:56Z
2026-05-06 16:24:58,75,64.6,29.88,WSW,258,2.5,6.9,70.2,0.00,,,0.00,269,2.1,n/a,2026-05-06T20:24:58Z
2026-05-06 16:29:57,75.6,64.9,29.89,South,189,1.1,4.8,69.5,0.00,,,0.00,258,1.9,n/a,2026-05-06T20:29:57Z
2026-05-06 16:34:59,76.3,65.2,29.89,WNW,298,3.1,6,68.6,0.00,,,0.00,251,1.9,n/a,2026-05-06T20:34:59Z
2026-05-06 16:39:58,76.7,64.9,29.89,SW,215,3.7,12,67.2,0.00,,,0.00,234,1.7,n/a,2026-05-06T20:39:58Z
2026-05-06 16:44:56,76.8,64.2,29.89,SW,230,5.2,10.8,65.2,0.00,,,0.00,236,1.7,n/a,2026-05-06T20:44:56Z
2026-05-06 16:49:59,77,63.9,29.88,SW,218,4.9,10.8,63.9,0.00,,,0.00,236,1.7,n/a,2026-05-06T20:49:59Z
2026-05-06 16:54:56,77.3,63.9,29.88,WSW,247,5,10.8,63.5,0.00,,,0.00,255,1.7,n/a,2026-05-06T20:54:56Z
2026-05-06 16:59:59,77.6,63.6,29.88,SW,220,5.8,12,62.1,0.00,,,0.00,341,2,n/a,2026-05-06T20:59:59Z
2026-05-06 17:04:59,78,63.8,29.88,SW,220,6.6,18,61.7,0.00,,,0.00,390,2.1,n/a,2026-05-06T21:04:59Z
2026-05-06 17:09:56,78.2,63.6,29.88,SSW,212,5.7,18.4,61,0.00,,,0.00,285,1.9,n/a,2026-05-06T21:09:56Z
2026-05-06 17:14:58,78.5,64,29.89,SW,221,5,12,61.3,0.00,,,0.00,339,2,n/a,2026-05-06T21:14:58Z
2026-05-06 17:19:57,78.7,63.9,29.89,SSW,212,8,19.6,60.6,0.00,,,0.00,399,2.2,n/a,2026-05-06T21:19:57Z
2026-05-06 17:24:57,79,63.7,29.89,SSW,213,8.5,18.4,59.5,0.00,,,0.00,364,2.1,n/a,2026-05-06T21:24:57Z
2026-05-06 17:29:57,79.1,63.3,29.89,SSW,209,9.6,18.4,58.5,0.00,,,0.00,279,1.7,n/a,2026-05-06T21:29:57Z
2026-05-06 17:34:57,79,63.1,29.88,SW,217,11.4,20.7,58.1,0.00,,,0.00,244,1.5,n/a,2026-05-06T21:34:57Z
2026-05-06 17:39:57,78.9,63.1,29.88,SW,226,7.1,17.3,58.2,0.00,,,0.00,267,1.5,n/a,2026-05-06T21:39:57Z
2026-05-06 17:44:57,79.3,63.6,29.88,SW,231,5.2,13.2,58.8,0.00,,,0.00,257,1.5,n/a,2026-05-06T21:44:57Z
2026-05-06 17:49:57,79.6,63.3,29.88,WSW,238,5.7,13.2,57.7,0.00,,,0.00,251,1.4,n/a,2026-05-06T21:49:57Z
2026-05-06 17:54:56,79.7,63.2,29.88,SW,234,9.2,20.7,57.2,0.00,,,0.00,246,1.3,n/a,2026-05-06T21:54:56Z
2026-05-06 17:59:56,79.7,63.7,29.88,SSW,202,6.9,15,58.1,0.00,,,0.00,260,1.3,n/a,2026-05-06T21:59:56Z
2026-05-06 18:04:58,79.8,63.4,29.88,SSW,198,5.8,10.8,57.5,0.00,,,0.00,248,1.2,n/a,2026-05-06T22:04:58Z
2026-05-06 18:09:56,79.8,63.4,29.88,SSW,196,7.3,18.4,57.4,0.00,,,0.00,227,1,n/a,2026-05-06T22:09:56Z
2026-05-06 18:14:56,79.7,63,29.88,SSW,212,9.6,18.4,57,0.00,,,0.00,199,0.9,n/a,2026-05-06T22:14:56Z
2026-05-06 18:19:56,79.5,63,29.87,SSW,207,8.1,17.3,57.2,0.00,,,0.00,199,0.8,n/a,2026-05-06T22:19:56Z
2026-05-06 18:24:59,79.4,62.9,29.87,SSW,207,7.3,17.3,57.2,0.00,,,0.00,199,0.8,n/a,2026-05-06T22:24:59Z
2026-05-06 18:29:43,79.7,63.1,29.87,SW,217,4.7,8.4,57,0.00,,,0.00,206,0.7,n/a,2026-05-06T22:29:43Z
2026-05-06 18:34:59,79.9,63.2,29.87,SSW,208,4.5,8.4,56.8,0.00,,,0.00,190,0.6,n/a,2026-05-06T22:34:59Z
2026-05-06 18:39:56,80,63.2,29.87,SW,217,3.8,6,56.6,0.00,,,0.00,121,0.5,n/a,2026-05-06T22:39:56Z
2026-05-06 18:44:56,79.9,63.1,29.88,SW,234,5.1,13.2,56.7,0.00,,,0.00,79,0.5,n/a,2026-05-06T22:44:56Z
2026-05-06 18:49:59,79.3,62.8,29.88,SW,214,7.4,16.1,57.1,0.00,,,0.00,69,0,n/a,2026-05-06T22:49:59Z
2026-05-06 18:54:59,79,63,29.88,SSW,208,6.4,17.3,58,0.00,,,0.00,104,0,n/a,2026-05-06T22:54:59Z
2026-05-06 18:59:59,79.1,63.1,29.88,SW,224,5.2,9.6,58,0.00,,,0.00,104,0,n/a,2026-05-06T22:59:59Z
2026-05-06 19:04:56,79.2,63.2,29.88,WSW,238,4.7,8.4,58.2,0.00,,,0.00,91,0,n/a,2026-05-06T23:04:56Z
2026-05-06 19:09:58,79.3,63.2,29.88,SSW,213,6.2,13.2,58,0.00,,,0.00,56,0,n/a,2026-05-06T23:09:58Z
2026-05-06 19:14:59,78.9,63.2,29.88,SSW,204,5.9,13.2,58.6,0.00,,,0.00,33,0,n/a,2026-05-06T23:14:59Z
2026-05-06 19:19:57,78.5,63,29.88,SSW,213,8.6,19.6,59,0.00,,,0.00,19,0,n/a,2026-05-06T23:19:57Z
2026-05-06 19:24:59,78.2,62.7,29.88,SSW,213,7.2,15,59,0.00,,,0.00,19,0,n/a,2026-05-06T23:24:59Z
2026-05-06 19:29:57,78,62.6,29.88,SW,225,5.7,10.8,59.1,0.00,,,0.00,19,0,n/a,2026-05-06T23:29:57Z
2026-05-06 19:34:55,77.9,62.4,29.88,SW,224,4.8,9.6,59,0.00,,,0.00,16,0,n/a,2026-05-06T23:34:55Z
2026-05-06 19:39:59,77.7,62.2,29.88,SSW,213,6.6,13.2,59,0.00,,,0.00,11,0,n/a,2026-05-06T23:39:59Z
2026-05-06 19:44:58,77.5,62,29.89,SW,214,6,12.7,59,0.00,,,0.00,9,0,n/a,2026-05-06T23:44:58Z
2026-05-06 19:49:57,77.3,61.9,29.89,SW,221,4.3,8.4,59,0.00,,,0.00,7,0,n/a,2026-05-06T23:49:57Z
2026-05-06 19:54:56,77.2,61.9,29.89,SSW,203,4.4,7.2,59.2,0.00,,,0.00,7,0,n/a,2026-05-06T23:54:56Z
2026-05-06 19:59:59,76.9,61.9,29.89,SW,217,3.1,7.2,59.8,0.00,,,0.00,5,0,n/a,2026-05-06T23:59:59Z
2026-05-06 20:04:58,76.7,61.8,29.89,SW,218,2.9,7.2,60,0.00,,,0.00,0,0,n/a,2026-05-07T00:04:58Z
2026-05-06 20:09:58,76.5,61.8,29.89,SW,217,3.2,6,60.3,0.00,,,0.00,0,0,n/a,2026-05-07T00:09:58Z
2026-05-06 20:14:58,76.3,61.9,29.89,SSW,212,2.9,4.8,61,0.00,,,0.00,0,0,n/a,2026-05-07T00:14:58Z
2026-05-06 20:19:57,76,61.8,29.89,SSW,212,3.4,7.2,61.6,0.00,,,0.00,0,0,n/a,2026-05-07T00:19:57Z
2026-05-06 20:24:59,75.8,61.8,29.89,SSW,213,3.1,6,62,0.00,,,0.00,0,0,n/a,2026-05-07T00:24:59Z
2026-05-06 20:29:59,75.6,61.7,29.89,SSW,208,3,7.2,62,0.00,,,0.00,0,0,n/a,2026-05-07T00:29:59Z
2026-05-06 20:34:59,75.5,61.7,29.89,SSW,212,2.5,5.8,62.3,0.00,,,0.00,0,0,n/a,2026-05-07T00:34:59Z
2026-05-06 20:39:59,75.4,61.8,29.89,WSW,246,1,3.6,62.9,0.00,,,0.00,0,0,n/a,2026-05-07T00:39:59Z
2026-05-06 20:44:57,75.3,61.8,29.90,SW,217,2.8,7.2,63,0.00,,,0.00,0,0,n/a,2026-05-07T00:44:57Z
2026-05-06 20:49:57,75.1,61.9,29.90,SSW,199,3,4.8,63.6,0.00,,,0.00,0,0,n/a,2026-05-07T00:49:57Z
2026-05-06 20:54:56,74.8,61.8,29.90,SSW,199,3.8,7.2,64,0.00,,,0.00,0,0,n/a,2026-05-07T00:54:56Z
2026-05-06 20:59:59,74.6,62,29.90,SSW,202,3.4,6.9,64.9,0.00,,,0.00,0,0,n/a,2026-05-07T00:59:59Z
2026-05-06 21:04:59,74.5,62,29.90,SSW,206,2.9,5.8,65,0.00,,,0.00,0,0,n/a,2026-05-07T01:04:59Z
2026-05-06 21:09:56,74.4,61.9,29.90,SSW,205,3.4,6,65,0.00,,,0.00,0,0,n/a,2026-05-07T01:09:56Z
2026-05-06 21:14:58,74.4,62,29.90,SSW,198,4.9,9.6,65.2,0.00,,,0.00,0,0,n/a,2026-05-07T01:14:58Z
2026-05-06 21:19:58,74.5,62,29.89,SSW,205,5.4,9.2,65,0.00,,,0.00,0,0,n/a,2026-05-07T01:19:58Z
2026-05-06 21:24:57,74.6,62.1,29.89,SSW,207,4,8.4,65,0.00,,,0.00,0,0,n/a,2026-05-07T01:24:57Z
2026-05-06 21:29:56,74.7,62.1,29.89,SW,221,4.8,12,65,0.00,,,0.00,0,0,n/a,2026-05-07T01:29:56Z
2026-05-06 21:34:56,74.9,62.3,29.89,SW,216,3.9,7.2,65,0.00,,,0.00,0,0,n/a,2026-05-07T01:34:56Z
2026-05-06 21:39:59,74.9,62.3,29.89,SSW,213,4.5,9.6,65,0.00,,,0.00,0,0,n/a,2026-05-07T01:39:59Z
2026-05-06 21:44:57,74.9,62.3,29.90,SSW,213,3.7,7.2,65,0.00,,,0.00,0,0,n/a,2026-05-07T01:44:57Z
2026-05-06 21:49:56,74.8,62.2,29.90,SW,217,2.4,4.8,65,0.00,,,0.00,0,0,n/a,2026-05-07T01:49:56Z
2026-05-06 21:54:56,74.7,62.1,29.90,SSW,206,1.2,3.6,65,0.00,,,0.00,0,0,n/a,2026-05-07T01:54:56Z
2026-05-06 21:59:59,74.6,62.4,29.90,SW,220,2.9,8.4,66,0.00,,,0.00,0,0,n/a,2026-05-07T01:59:59Z
2026-05-06 22:04:58,74.5,62.4,29.90,SSW,213,2.9,8.1,66,0.00,,,0.00,0,0,n/a,2026-05-07T02:04:58Z
2026-05-06 22:09:58,74.4,62.5,29.90,SSW,212,4,7.2,66.6,0.00,,,0.00,0,0,n/a,2026-05-07T02:09:58Z
2026-05-06 22:14:57,74.3,62.6,29.90,SSW,210,4,12,67,0.00,,,0.00,0,0,n/a,2026-05-07T02:14:57Z
2026-05-06 22:19:56,74.3,62.6,29.90,SSW,213,4.3,8.4,67,0.00,,,0.00,0,0,n/a,2026-05-07T02:19:56Z
2026-05-06 22:24:59,74.4,62.7,29.90,SW,216,2.9,8.1,67,0.00,,,0.00,0,0,n/a,2026-05-07T02:24:59Z
2026-05-06 22:29:57,74.4,62.7,29.90,SW,221,3.2,10.8,67,0.00,,,0.00,0,0,n/a,2026-05-07T02:29:57Z
2026-05-06 22:34:56,74.4,62.7,29.90,SSW,210,3.6,10.8,67,0.00,,,0.00,0,0,n/a,2026-05-07T02:34:56Z
2026-05-06 22:39:59,74.4,62.7,29.90,SSW,211,3.1,6.9,67,0.00,,,0.00,0,0,n/a,2026-05-07T02:39:59Z
2026-05-06 22:44:58,74.4,62.7,29.90,SW,220,3.9,7.2,67,0.00,,,0.00,0,0,n/a,2026-05-07T02:44:58Z
2026-05-06 22:49:57,74.4,62.7,29.90,SSW,204,3.7,7.2,67,0.00,,,0.00,0,0,n/a,2026-05-07T02:49:57Z
2026-05-06 22:54:56,74.2,62.5,29.90,SSW,213,2.8,4.8,67,0.00,,,0.00,0,0,n/a,2026-05-07T02:54:56Z
2026-05-06 22:59:56,74.2,62.9,29.90,SW,220,2.7,4.8,67.9,0.00,,,0.00,0,0,n/a,2026-05-07T02:59:56Z
2026-05-06 23:04:56,74,62.8,29.90,SW,216,3,7.2,68,0.00,,,0.00,0,0,n/a,2026-05-07T03:04:56Z
2026-05-06 23:09:56,74,62.8,29.90,SW,214,2.3,6,68,0.00,,,0.00,0,0,n/a,2026-05-07T03:09:56Z
2026-05-06 23:14:59,73.9,62.7,29.90,SW,222,2.7,6,68,0.00,,,0.00,0,0,n/a,2026-05-07T03:14:59Z
2026-05-06 23:19:58,73.8,62.6,29.90,SW,220,3.1,6,68,0.00,,,0.00,0,0,n/a,2026-05-07T03:19:58Z
2026-05-06 23:24:56,73.8,62.6,29.90,SW,223,2.7,6,68,0.00,,,0.00,0,0,n/a,2026-05-07T03:24:56Z
2026-05-06 23:29:59,73.7,62.6,29.90,SW,216,3.7,7.2,68.3,0.00,,,0.00,0,0,n/a,2026-05-07T03:29:59Z
2026-05-06 23:34:58,73.7,62.7,29.90,SW,216,3.3,6.9,68.3,0.00,,,0.00,0,0,n/a,2026-05-07T03:34:58Z
2026-05-06 23:39:57,73.7,62.8,29.90,SW,220,2.3,7.2,68.8,0.00,,,0.00,0,0,n/a,2026-05-07T03:39:57Z
2026-05-06 23:44:56,73.6,62.8,29.90,SSW,192,3,6.9,69,0.00,,,0.00,0,0,n/a,2026-05-07T03:44:56Z